Time;durP1;ratioP1;P1;durP2;ratioP2;P2;SDS_P1;SDS_P2;PMS_P1;PMS_P2;Temp;Humidity;BMP_temperature;BMP_pressure;BME280_temperature;BME280_humidity;BME280_pressure;Samples;Min_cycle;Max_cycle;Signal;HPM_P1;HPM_P2
2022/07/16 00:01:23;;;;;;;5.20;4.95;;;;;;;-141.48;100.00;69781.59;4973252;29;20095;-64
2022/07/16 00:03:56;;;;;;;5.18;4.80;;;;;;;-141.48;100.00;69781.59;4972995;29;20134;-66
2022/07/16 00:06:28;;;;;;;5.05;4.65;;;;;;;-141.48;100.00;69781.59;4972981;29;20119;-64
2022/07/16 00:08:59;;;;;;;5.03;4.68;;;;;;;-141.48;100.00;69781.59;4973084;29;20072;-64
2022/07/16 00:11:29;;;;;;;6.45;5.35;;;;;;;-141.48;100.00;69781.59;4973104;29;20183;-64
2022/07/16 00:14:00;;;;;;;5.85;5.18;;;;;;;-141.48;100.00;69781.59;4972835;29;20030;-64
2022/07/16 00:16:30;;;;;;;7.00;6.40;;;;;;;-141.48;100.00;69781.59;4973228;29;20103;-64
2022/07/16 00:19:16;;;;;;;4.90;4.43;;;;;;;-141.48;100.00;69781.59;4972921;29;20031;-63
2022/07/16 00:21:49;;;;;;;3.83;3.63;;;;;;;-141.48;100.00;69781.59;4956515;29;20030;-64
2022/07/16 00:24:20;;;;;;;5.60;4.90;;;;;;;-141.48;100.00;69781.59;4972941;29;20042;-64
2022/07/16 00:26:52;;;;;;;6.15;5.57;;;;;;;-141.48;100.00;69781.59;4957502;29;20037;-64
2022/07/16 00:29:22;;;;;;;5.30;4.90;;;;;;;-141.48;100.00;69781.59;4957525;29;20566;-64
2022/07/16 00:31:54;;;;;;;5.22;4.75;;;;;;;-141.48;100.00;69781.59;4958136;29;20114;-64
2022/07/16 00:34:24;;;;;;;4.90;4.60;;;;;;;-141.48;100.00;69781.59;4971818;29;20026;-63
2022/07/16 00:36:55;;;;;;;6.88;5.15;;;;;;;-141.48;100.00;69781.59;4972653;29;20033;-64
2022/07/16 00:39:25;;;;;;;6.10;4.70;;;;;;;-141.48;100.00;69781.59;4972617;29;20417;-62
2022/07/16 00:41:56;;;;;;;3.80;3.70;;;;;;;-141.48;100.00;69781.59;4972709;29;20049;-63
2022/07/16 00:44:26;;;;;;;5.68;5.15;;;;;;;-141.48;100.00;69781.59;4972177;29;20067;-63
2022/07/16 00:46:57;;;;;;;4.15;3.95;;;;;;;-141.48;100.00;69781.59;4972495;29;20030;-64
2022/07/16 00:49:27;;;;;;;4.05;3.85;;;;;;;-141.48;100.00;69781.59;4972382;29;20084;-64
2022/07/16 00:51:58;;;;;;;5.82;5.25;;;;;;;-141.48;100.00;69781.59;4972106;29;20166;-63
2022/07/16 00:54:29;;;;;;;6.28;5.88;;;;;;;-141.48;100.00;69781.59;4972076;29;20083;-63
2022/07/16 00:57:00;;;;;;;6.28;5.63;;;;;;;-141.48;100.00;69781.59;4972292;29;20037;-63
2022/07/16 00:59:30;;;;;;;4.43;4.13;;;;;;;-141.48;100.00;69781.59;4972468;29;20027;-63
2022/07/16 01:02:01;;;;;;;5.38;4.88;;;;;;;-141.48;100.00;69781.59;4972417;29;20046;-63
2022/07/16 01:04:33;;;;;;;4.63;4.20;;;;;;;-141.48;100.00;69781.59;4971692;29;20499;-64
2022/07/16 01:07:04;;;;;;;5.25;4.95;;;;;;;-141.48;100.00;69781.59;4955948;29;20031;-64
2022/07/16 01:09:35;;;;;;;5.65;5.25;;;;;;;-141.48;100.00;69781.59;4971992;29;20039;-64
2022/07/16 01:12:06;;;;;;;11.80;5.03;;;;;;;-141.48;100.00;69781.59;4972149;29;20113;-64
2022/07/16 01:14:36;;;;;;;4.22;4.03;;;;;;;-141.48;100.00;69781.59;4971586;29;20038;-64
2022/07/16 01:17:07;;;;;;;3.78;3.58;;;;;;;-141.48;100.00;69781.59;4972178;29;20090;-64
2022/07/16 01:19:38;;;;;;;4.88;4.68;;;;;;;-141.48;100.00;69781.59;4971756;29;20031;-64
2022/07/16 01:22:09;;;;;;;5.75;5.25;;;;;;;-141.48;100.00;69781.59;4972048;29;20392;-64
2022/07/16 01:24:40;;;;;;;4.45;3.92;;;;;;;-141.48;100.00;69781.59;4955344;29;20050;-64
2022/07/16 01:27:10;;;;;;;5.28;4.88;;;;;;;-141.48;100.00;69781.59;4971399;29;20027;-64
2022/07/16 01:29:41;;;;;;;4.40;4.10;;;;;;;-141.48;100.00;69781.59;4971618;29;20030;-63
2022/07/16 01:32:11;;;;;;;4.57;4.35;;;;;;;-141.48;100.00;69781.59;4971859;29;20027;-65
2022/07/16 01:34:42;;;;;;;3.90;3.70;;;;;;;-141.48;100.00;69781.59;4971544;29;20038;-65
2022/07/16 01:37:14;;;;;;;5.00;4.80;;;;;;;-141.48;100.00;69781.59;4955491;29;20033;-64
2022/07/16 01:39:45;;;;;;;3.63;3.53;;;;;;;-141.48;100.00;69781.59;4971294;29;20057;-64
2022/07/16 01:42:16;;;;;;;5.82;4.57;;;;;;;-141.48;100.00;69781.59;4971599;29;20058;-64
2022/07/16 01:44:47;;;;;;;4.18;3.97;;;;;;;-141.48;100.00;69781.59;4971775;29;20038;-66
2022/07/16 01:47:17;;;;;;;6.35;5.82;;;;;;;-141.48;100.00;69781.59;4971562;29;20038;-64
2022/07/16 01:49:48;;;;;;;5.13;3.88;;;;;;;-141.48;100.00;69781.59;4971745;29;20031;-65
2022/07/16 01:52:21;;;;;;;4.22;4.03;;;;;;;-141.48;100.00;69781.59;4971919;29;20451;-64
2022/07/16 01:54:53;;;;;;;4.55;4.35;;;;;;;-141.48;100.00;69781.59;4971986;29;20109;-64
2022/07/16 01:57:24;;;;;;;6.63;5.97;;;;;;;-141.48;100.00;69781.59;4971991;29;20041;-64
2022/07/16 01:59:54;;;;;;;6.38;5.97;;;;;;;-141.48;100.00;69781.59;4970995;29;20027;-64
2022/07/16 02:02:24;;;;;;;4.82;4.63;;;;;;;-141.48;100.00;69781.59;4971004;29;20035;-64
2022/07/16 02:04:55;;;;;;;5.38;4.90;;;;;;;-141.48;100.00;69781.59;4971704;29;20030;-64
2022/07/16 02:07:25;;;;;;;5.45;4.93;;;;;;;-141.48;100.00;69781.59;4971876;29;20035;-64
2022/07/16 02:09:56;;;;;;;5.05;4.55;;;;;;;-141.48;100.00;69781.59;4972024;29;20489;-64
2022/07/16 02:12:26;;;;;;;4.22;4.03;;;;;;;-141.48;100.00;69781.59;4972372;29;20042;-64
2022/07/16 02:14:57;;;;;;;4.38;4.07;;;;;;;-141.48;100.00;69781.59;4972770;29;20404;-64
2022/07/16 02:17:27;;;;;;;4.47;4.25;;;;;;;-141.48;100.00;69781.59;4971135;29;20030;-63
2022/07/16 02:19:57;;;;;;;5.72;5.20;;;;;;;-141.48;100.00;69781.59;4971930;29;20455;-63
2022/07/16 02:22:28;;;;;;;6.50;4.85;;;;;;;-141.48;100.00;69781.59;4955979;29;20027;-69
2022/07/16 02:24:59;;;;;;;3.97;3.70;;;;;;;-141.48;100.00;69781.59;4971459;29;20022;-65
2022/07/16 02:27:30;;;;;;;4.25;4.05;;;;;;;-141.48;100.00;69781.59;4971732;29;20061;-64
2022/07/16 02:30:00;;;;;;;7.32;6.50;;;;;;;-141.48;100.00;69781.59;4971341;29;20066;-63
2022/07/16 02:32:31;;;;;;;5.85;5.45;;;;;;;-141.48;100.00;69781.59;4971080;29;20185;-64
2022/07/16 02:35:01;;;;;;;5.68;5.15;;;;;;;-141.48;100.00;69781.59;4970924;29;20031;-64
2022/07/16 02:37:31;;;;;;;4.85;4.38;;;;;;;-141.48;100.00;69781.59;4971298;29;20170;-64
2022/07/16 02:40:02;;;;;;;5.55;5.25;;;;;;;-141.48;100.00;69781.59;4970750;29;20031;-64
2022/07/16 02:42:33;;;;;;;5.57;5.07;;;;;;;-141.48;100.00;69781.59;4970580;29;20488;-63
2022/07/16 02:45:04;;;;;;;5.43;4.95;;;;;;;-141.48;100.00;69781.59;4970357;29;20035;-64
2022/07/16 02:47:35;;;;;;;5.32;5.03;;;;;;;-141.48;100.00;69781.59;4970532;29;20075;-63
2022/07/16 02:50:07;;;;;;;7.13;5.50;;;;;;;-141.48;100.00;69781.59;4970646;29;20034;-64
2022/07/16 02:52:38;;;;;;;4.82;4.43;;;;;;;-141.48;100.00;69781.59;4970357;29;20503;-64
2022/07/16 02:55:08;;;;;;;5.40;5.10;;;;;;;-141.48;100.00;69781.59;4970111;29;20030;-64
2022/07/16 02:57:39;;;;;;;5.15;4.75;;;;;;;-141.48;100.00;69781.59;4970422;29;20037;-66
2022/07/16 03:00:13;;;;;;;6.03;5.55;;;;;;;-141.48;100.00;69781.59;4939315;29;20114;-63
2022/07/16 03:02:44;;;;;;;5.57;5.13;;;;;;;-141.48;100.00;69781.59;4954208;29;20035;-64
2022/07/16 03:05:14;;;;;;;6.53;5.93;;;;;;;-141.48;100.00;69781.59;4969853;29;20027;-64
2022/07/16 03:07:45;;;;;;;5.60;4.80;;;;;;;-141.48;100.00;69781.59;4969988;29;20472;-64
2022/07/16 03:10:15;;;;;;;5.90;5.60;;;;;;;-141.48;100.00;69781.59;4970009;29;20106;-64
2022/07/16 03:12:46;;;;;;;5.43;5.13;;;;;;;-141.48;100.00;69781.59;4970179;29;20536;-63
2022/07/16 03:15:16;;;;;;;5.65;5.35;;;;;;;-141.48;100.00;69781.59;4969884;29;20031;-63
2022/07/16 03:17:47;;;;;;;5.72;5.28;;;;;;;-141.48;100.00;69781.59;4970061;29;20411;-63
2022/07/16 03:20:17;;;;;;;6.30;5.72;;;;;;;-141.48;100.00;69781.59;4970443;29;20034;-64
2022/07/16 03:22:48;;;;;;;6.70;4.97;;;;;;;-141.48;100.00;69781.59;4970393;29;20535;-63
2022/07/16 03:25:18;;;;;;;6.00;5.60;;;;;;;-141.48;100.00;69781.59;4969761;29;20092;-63
2022/07/16 03:27:49;;;;;;;10.73;6.43;;;;;;;-141.48;100.00;69781.59;4953898;29;20051;-62
2022/07/16 03:30:19;;;;;;;6.80;4.57;;;;;;;-141.48;100.00;69781.59;4970097;29;20031;-63
2022/07/16 03:32:50;;;;;;;6.32;5.95;;;;;;;-141.48;100.00;69781.59;4972684;29;20054;-63
2022/07/16 03:35:20;;;;;;;6.22;5.93;;;;;;;-141.48;100.00;69781.59;4973724;29;20035;-63
2022/07/16 03:40:40;;;;;;;5.78;5.40;;;;;;;-141.48;100.00;69781.59;4974284;29;20126;-63
2022/07/16 03:43:11;;;;;;;5.13;4.82;;;;;;;-141.48;100.00;69781.59;4973580;29;20555;-66
2022/07/16 03:45:41;;;;;;;5.40;5.07;;;;;;;-141.48;100.00;69781.59;4972920;29;20039;-63
2022/07/16 03:48:11;;;;;;;6.35;5.80;;;;;;;-141.48;100.00;69781.59;4973443;29;20396;-63
2022/07/16 03:50:42;;;;;;;6.03;5.53;;;;;;;-141.48;100.00;69781.59;4973617;29;20031;-63
2022/07/16 03:53:12;;;;;;;7.93;6.80;;;;;;;-141.48;100.00;69781.59;4971712;29;20492;-63
2022/07/16 03:55:43;;;;;;;6.60;6.00;;;;;;;-141.48;100.00;69781.59;4972729;29;20041;-63
2022/07/16 03:58:13;;;;;;;6.07;5.68;;;;;;;-141.48;100.00;69781.59;4973145;29;20022;-63
2022/07/16 04:00:43;;;;;;;6.70;6.30;;;;;;;-141.48;100.00;69781.59;4971376;29;20030;-63
2022/07/16 04:03:14;;;;;;;6.50;6.10;;;;;;;-141.48;100.00;69781.59;4972708;29;20508;-63
2022/07/16 04:05:44;;;;;;;7.93;6.72;;;;;;;-141.48;100.00;69781.59;4972229;29;20042;-63
2022/07/16 04:08:15;;;;;;;7.40;6.97;;;;;;;-141.48;100.00;69781.59;4972819;29;20394;-64
2022/07/16 04:10:45;;;;;;;6.15;5.65;;;;;;;-141.48;100.00;69781.59;4972606;29;20030;-63
2022/07/16 04:13:19;;;;;;;6.15;5.85;;;;;;;-141.48;100.00;69781.59;4972499;29;20034;-64
2022/07/16 04:15:50;;;;;;;6.47;5.90;;;;;;;-141.48;100.00;69781.59;4955983;29;20438;-63
2022/07/16 04:18:20;;;;;;;8.90;7.00;;;;;;;-141.48;100.00;69781.59;4971291;29;20027;-64
2022/07/16 04:20:51;;;;;;;7.45;6.88;;;;;;;-141.48;100.00;69781.59;4972781;29;20034;-64
2022/07/16 04:23:21;;;;;;;6.75;6.15;;;;;;;-141.48;100.00;69781.59;4970917;29;20026;-63
2022/07/16 04:25:52;;;;;;;6.97;6.38;;;;;;;-141.48;100.00;69781.59;4972761;29;20042;-64
2022/07/16 04:28:22;;;;;;;6.15;5.75;;;;;;;-141.48;100.00;69781.59;4972271;29;20055;-63
2022/07/16 04:30:53;;;;;;;6.15;5.85;;;;;;;-141.48;100.00;69781.59;4972302;29;20031;-63
2022/07/16 04:33:23;;;;;;;6.80;6.35;;;;;;;-141.48;100.00;69781.59;4970754;29;20023;-63
2022/07/16 04:35:53;;;;;;;6.32;6.03;;;;;;;-141.48;100.00;69781.59;4972224;29;20070;-63
2022/07/16 04:38:24;;;;;;;6.70;6.20;;;;;;;-141.48;100.00;69781.59;4970940;29;20152;-63
2022/07/16 04:40:54;;;;;;;7.85;7.32;;;;;;;-141.48;100.00;69781.59;4971909;29;20069;-63
2022/07/16 04:43:26;;;;;;;8.30;6.85;;;;;;;-141.48;100.00;69781.59;4966150;24;20049;-67
2022/07/16 04:45:56;;;;;;;7.78;7.28;;;;;;;-141.48;100.00;69781.59;4971282;29;20031;-67
2022/07/16 04:48:27;;;;;;;6.45;6.05;;;;;;;-141.48;100.00;69781.59;4971678;29;20031;-66
2022/07/16 04:50:57;;;;;;;6.70;6.20;;;;;;;-141.48;100.00;69781.59;4971190;29;20039;-66
2022/07/16 04:53:27;;;;;;;6.78;6.38;;;;;;;-141.48;100.00;69781.59;4971354;29;20121;-66
2022/07/16 04:55:58;;;;;;;8.55;7.82;;;;;;;-141.48;100.00;69781.59;4971193;29;20027;-66
2022/07/16 04:58:28;;;;;;;6.95;6.45;;;;;;;-141.48;100.00;69781.59;4971372;29;20084;-66
2022/07/16 05:00:59;;;;;;;7.75;7.03;;;;;;;-141.48;100.00;69781.59;4971430;29;20030;-66
2022/07/16 05:03:29;;;;;;;7.60;7.05;;;;;;;-141.48;100.00;69781.59;4954755;29;20039;-66
2022/07/16 05:05:59;;;;;;;6.50;6.10;;;;;;;-141.48;100.00;69781.59;4955427;29;20033;-66
2022/07/16 05:08:30;;;;;;;7.13;6.45;;;;;;;-141.48;100.00;69781.59;4955052;29;20116;-66
2022/07/16 05:11:01;;;;;;;7.47;6.97;;;;;;;-141.48;100.00;69781.59;4971051;29;20542;-66
2022/07/16 05:13:31;;;;;;;6.93;5.75;;;;;;;-141.48;100.00;69781.59;4970592;29;20540;-66
2022/07/16 05:16:02;;;;;;;7.13;6.47;;;;;;;-141.48;100.00;69781.59;4971352;29;20027;-66
2022/07/16 05:18:33;;;;;;;6.90;6.38;;;;;;;-141.48;100.00;69781.59;4971236;29;20077;-67
2022/07/16 05:21:03;;;;;;;7.95;7.43;;;;;;;-141.48;100.00;69781.59;4970830;29;20507;-66
2022/07/16 05:23:34;;;;;;;7.60;7.18;;;;;;;-141.48;100.00;69781.59;4954344;29;20027;-66
2022/07/16 05:26:04;;;;;;;9.48;5.97;;;;;;;-141.48;100.00;69781.59;4970746;29;20033;-65
2022/07/16 05:28:35;;;;;;;7.28;6.78;;;;;;;-141.48;100.00;69781.59;4954686;29;20034;-65
2022/07/16 05:31:06;;;;;;;9.27;6.28;;;;;;;-141.48;100.00;69781.59;4970791;29;20065;-66
2022/07/16 05:33:36;;;;;;;7.28;6.72;;;;;;;-141.48;100.00;69781.59;4970331;29;20038;-65
2022/07/16 05:36:07;;;;;;;7.70;7.13;;;;;;;-141.48;100.00;69781.59;4970590;29;20030;-66
2022/07/16 05:38:37;;;;;;;13.40;7.97;;;;;;;-141.48;100.00;69781.59;4954494;29;20030;-65
2022/07/16 05:41:08;;;;;;;11.18;8.10;;;;;;;-141.48;100.00;69781.59;4970879;29;20399;-65
2022/07/16 05:43:39;;;;;;;7.75;7.00;;;;;;;-141.48;100.00;69781.59;4933192;29;1143314;-66
2022/07/16 05:46:09;;;;;;;8.20;6.57;;;;;;;-141.48;100.00;69781.59;4971326;29;20531;-66
2022/07/16 05:48:39;;;;;;;7.65;7.00;;;;;;;-141.48;100.00;69781.59;4971341;29;20058;-65
2022/07/16 05:51:10;;;;;;;8.73;7.65;;;;;;;-141.48;100.00;69781.59;4971337;29;20034;-65
2022/07/16 05:53:40;;;;;;;8.35;7.57;;;;;;;-141.48;100.00;69781.59;4970860;29;20172;-65
2022/07/16 05:56:11;;;;;;;10.30;6.25;;;;;;;-141.48;100.00;69781.59;4970294;29;20033;-65
2022/07/16 05:58:41;;;;;;;6.25;5.80;;;;;;;-141.48;100.00;69781.59;4971058;29;20098;-68
2022/07/16 06:01:11;;;;;;;6.70;6.32;;;;;;;-141.48;100.00;69781.59;4971045;29;20038;-66
2022/07/16 06:03:42;;;;;;;7.10;6.60;;;;;;;-141.48;100.00;69781.59;4970410;29;20023;-64
2022/07/16 06:06:12;;;;;;;6.78;6.30;;;;;;;-141.48;100.00;69781.59;4954844;29;20477;-64
2022/07/16 06:08:42;;;;;;;6.97;6.32;;;;;;;-141.48;100.00;69781.59;4970952;29;20101;-64
2022/07/16 06:11:14;;;;;;;7.05;6.55;;;;;;;-141.48;100.00;69781.59;4970766;29;20460;-66
2022/07/16 06:13:44;;;;;;;6.05;5.68;;;;;;;-141.48;100.00;69781.59;4970740;29;20109;-65
2022/07/16 06:16:15;;;;;;;6.35;5.82;;;;;;;-141.48;100.00;69781.59;4970923;29;20033;-64
2022/07/16 06:18:45;;;;;;;6.07;5.65;;;;;;;-141.48;100.00;69781.59;4971113;29;20338;-62
2022/07/16 06:21:16;;;;;;;5.68;5.18;;;;;;;-141.48;100.00;69781.59;4970674;29;20033;-66
2022/07/16 06:23:46;;;;;;;7.45;6.72;;;;;;;-141.48;100.00;69781.59;4970214;29;20038;-67
2022/07/16 06:26:17;;;;;;;6.93;5.28;;;;;;;-141.48;100.00;69781.59;4954573;29;20049;-65
2022/07/16 06:28:47;;;;;;;6.75;6.25;;;;;;;-141.48;100.00;69781.59;4954403;29;20095;-64
2022/07/16 06:31:18;;;;;;;5.78;5.47;;;;;;;-141.48;100.00;69781.59;4954099;29;20103;-64
2022/07/16 06:33:48;;;;;;;8.15;5.90;;;;;;;-141.48;100.00;69781.59;4970078;29;20031;-63
2022/07/16 06:36:18;;;;;;;7.20;5.30;;;;;;;-141.48;100.00;69781.59;4970150;29;20030;-64
2022/07/16 06:38:49;;;;;;;5.00;4.57;;;;;;;-141.48;100.00;69781.59;4970658;29;20109;-64
2022/07/16 06:41:19;;;;;;;3.85;3.63;;;;;;;-141.48;100.00;69781.59;4970367;29;20031;-64
2022/07/16 06:43:50;;;;;;;4.57;4.38;;;;;;;-141.48;100.00;69781.59;4970163;29;20146;-66
2022/07/16 06:46:20;;;;;;;4.05;3.85;;;;;;;-141.48;100.00;69781.59;4970251;29;20407;-64
2022/07/16 06:48:51;;;;;;;5.75;4.07;;;;;;;-141.48;100.00;69781.59;4955210;29;20045;-63
2022/07/16 06:51:21;;;;;;;6.53;4.25;;;;;;;-141.48;100.00;69781.59;4955252;29;20125;-64
2022/07/16 06:53:52;;;;;;;5.25;4.38;;;;;;;-141.48;100.00;69781.59;4971458;29;20045;-64
2022/07/16 06:56:23;;;;;;;5.40;4.10;;;;;;;-141.48;100.00;69781.59;4954810;29;20027;-63
2022/07/16 06:58:53;;;;;;;5.20;4.82;;;;;;;-141.48;100.00;69781.59;4953983;29;20034;-64
2022/07/16 07:01:24;;;;;;;4.53;4.13;;;;;;;-141.48;100.00;69781.59;4970065;29;20035;-64
2022/07/16 07:03:54;;;;;;;4.03;3.67;;;;;;;-141.48;100.00;69781.59;4969893;29;20083;-64
2022/07/16 07:06:25;;;;;;;4.47;4.25;;;;;;;-141.48;100.00;69781.59;4953687;29;20034;-68
2022/07/16 07:08:55;;;;;;;8.68;4.70;;;;;;;-141.48;100.00;69781.59;4970236;29;20041;-66
2022/07/16 07:11:25;;;;;;;4.60;4.20;;;;;;;-141.48;100.00;69781.59;4953778;29;20039;-64
2022/07/16 07:13:56;;;;;;;3.70;3.53;;;;;;;-141.48;100.00;69781.59;4969960;29;20027;-64
2022/07/16 07:16:26;;;;;;;3.80;3.60;;;;;;;-141.48;100.00;69781.59;4954022;29;20034;-63
2022/07/16 07:18:57;;;;;;;5.60;3.50;;;;;;;-141.48;100.00;69781.59;4970009;29;20031;-63
2022/07/16 07:21:27;;;;;;;3.70;3.50;;;;;;;-141.48;100.00;69781.59;4953911;29;20046;-65
2022/07/16 07:23:58;;;;;;;5.38;5.05;;;;;;;-141.48;100.00;69781.59;4970033;29;20030;-64
2022/07/16 07:26:28;;;;;;;4.35;4.15;;;;;;;-141.48;100.00;69781.59;4970033;29;20042;-66
2022/07/16 07:28:59;;;;;;;4.90;4.70;;;;;;;-141.48;100.00;69781.59;4953836;29;20027;-64
2022/07/16 07:31:29;;;;;;;4.22;4.03;;;;;;;-141.48;100.00;69781.59;4969792;29;20376;-65
2022/07/16 07:34:00;;;;;;;3.70;3.00;;;;;;;-141.48;100.00;69781.59;4969529;29;20026;-64
2022/07/16 07:36:30;;;;;;;3.22;3.03;;;;;;;-141.48;100.00;69781.59;4970173;29;20031;-64
2022/07/16 07:39:00;;;;;;;2.90;2.78;;;;;;;-141.48;100.00;69781.59;4969604;29;20029;-65
2022/07/16 07:41:31;;;;;;;2.95;2.75;;;;;;;-141.48;100.00;69781.59;4969980;29;20445;-66
2022/07/16 07:44:01;;;;;;;3.22;3.13;;;;;;;-141.48;100.00;69781.59;4953392;29;20067;-65
2022/07/16 07:46:32;;;;;;;2.58;2.47;;;;;;;-141.48;100.00;69781.59;4969398;29;20466;-63
2022/07/16 07:49:02;;;;;;;2.80;2.70;;;;;;;-141.48;100.00;69781.59;4969903;29;20038;-64
2022/07/16 07:51:33;;;;;;;5.88;2.83;;;;;;;-141.48;100.00;69781.59;4969685;29;20034;-64
2022/07/16 07:54:03;;;;;;;3.08;2.97;;;;;;;-141.48;100.00;69781.59;4969608;29;20066;-64
2022/07/16 07:56:33;;;;;;;4.15;2.75;;;;;;;-141.48;100.00;69781.59;4969951;29;20035;-68
2022/07/16 07:59:04;;;;;;;3.80;3.60;;;;;;;-141.48;100.00;69781.59;4969376;29;20034;-66
2022/07/16 08:01:34;;;;;;;2.78;2.67;;;;;;;-141.48;100.00;69781.59;4969598;29;20083;-65
2022/07/16 08:04:05;;;;;;;2.35;2.28;;;;;;;-141.48;100.00;69781.59;4953195;29;20111;-64
2022/07/16 08:06:36;;;;;;;2.75;2.13;;;;;;;-141.48;100.00;69781.59;4953197;29;20484;-65
2022/07/16 08:09:07;;;;;;;2.22;2.13;;;;;;;-141.48;100.00;69781.59;4969734;29;20039;-65
2022/07/16 08:11:37;;;;;;;4.93;2.85;;;;;;;-141.48;100.00;69781.59;4969668;29;20037;-65
2022/07/16 08:14:07;;;;;;;2.40;2.20;;;;;;;-141.48;100.00;69781.59;4969284;29;20027;-64
2022/07/16 08:16:38;;;;;;;2.35;2.20;;;;;;;-141.48;100.00;69781.59;4969702;29;20396;-64
2022/07/16 08:19:08;;;;;;;3.58;2.65;;;;;;;-141.48;100.00;69781.59;4970835;29;20396;-64
2022/07/16 08:21:39;;;;;;;2.38;2.28;;;;;;;-141.48;100.00;69781.59;4973587;29;20030;-69
2022/07/16 08:26:58;;;;;;;2.38;2.28;;;;;;;-141.48;100.00;69781.59;4973187;29;20056;-64
2022/07/16 08:29:29;;;;;;;1.63;1.63;;;;;;;-141.48;100.00;69781.59;4973155;29;20453;-68
2022/07/16 08:31:59;;;;;;;2.42;2.33;;;;;;;-141.48;100.00;69781.59;4972706;29;20035;-65
2022/07/16 08:34:30;;;;;;;3.40;2.20;;;;;;;-141.48;100.00;69781.59;4972226;29;20026;-63
2022/07/16 08:37:01;;;;;;;2.20;2.10;;;;;;;-141.48;100.00;69781.59;4972855;29;20038;-66
2022/07/16 08:39:31;;;;;;;3.63;2.33;;;;;;;-141.48;100.00;69781.59;4972860;29;20373;-64
2022/07/16 08:42:02;;;;;;;2.17;1.98;;;;;;;-141.48;100.00;69781.59;4972708;29;20039;-62
2022/07/16 08:44:33;;;;;;;1.70;1.70;;;;;;;-141.48;100.00;69781.59;4972145;29;20505;-64
2022/07/16 08:47:04;;;;;;;2.28;2.17;;;;;;;-141.48;100.00;69781.59;4972540;29;20117;-63
2022/07/16 08:49:37;;;;;;;2.53;2.42;;;;;;;-141.48;100.00;69781.59;4972677;29;20064;-63
2022/07/16 08:52:08;;;;;;;2.20;2.10;;;;;;;-141.48;100.00;69781.59;4972529;29;20030;-64
2022/07/16 08:54:40;;;;;;;2.00;2.00;;;;;;;-141.48;100.00;69781.59;4972261;29;20041;-64
2022/07/16 08:57:11;;;;;;;2.50;2.40;;;;;;;-141.48;100.00;69781.59;4972218;29;20023;-68
2022/07/16 08:59:42;;;;;;;2.35;2.25;;;;;;;-141.48;100.00;69781.59;4972097;29;20031;-65
2022/07/16 09:02:13;;;;;;;4.65;2.20;;;;;;;-141.48;100.00;69781.59;4972703;29;20095;-64
2022/07/16 09:04:44;;;;;;;2.45;2.35;;;;;;;-141.48;100.00;69781.59;4972108;29;20513;-63
2022/07/16 09:07:16;;;;;;;2.33;2.22;;;;;;;-141.48;100.00;69781.59;4972110;29;20038;-64
2022/07/16 09:09:47;;;;;;;1.67;1.67;;;;;;;-141.48;100.00;69781.59;4955915;29;20044;-64
2022/07/16 09:12:36;;;;;;;2.53;2.42;;;;;;;-141.48;100.00;69781.59;4972190;29;20508;-63
2022/07/16 09:15:26;;;;;;;2.75;2.55;;;;;;;-141.48;100.00;69781.59;4971814;29;20556;-67
2022/07/16 09:18:07;;;;;;;1.90;1.85;;;;;;;-141.48;100.00;69781.59;4971889;29;20098;-65
2022/07/16 09:20:44;;;;;;;2.38;2.28;;;;;;;-141.48;100.00;69781.59;4971808;29;20027;-63
2022/07/16 09:23:17;;;;;;;3.95;2.17;;;;;;;-141.48;100.00;69781.59;4971193;29;20035;-63
2022/07/16 09:25:49;;;;;;;2.50;1.77;;;;;;;-141.48;100.00;69781.59;4970968;29;20411;-64
2022/07/16 09:28:21;;;;;;;2.63;2.20;;;;;;;-141.48;100.00;69781.59;4970922;29;20031;-63
2022/07/16 09:30:52;;;;;;;1.50;1.50;;;;;;;-141.48;100.00;69781.59;4970332;29;20496;-63
2022/07/16 09:33:23;;;;;;;2.40;2.20;;;;;;;-141.48;100.00;69781.59;4970963;29;20066;-63
2022/07/16 09:36:12;;;;;;;2.35;2.15;;;;;;;-141.48;100.00;69781.59;4970697;29;20031;-65
2022/07/16 09:38:46;;;;;;;3.60;2.37;;;;;;;-141.48;100.00;69781.59;4970836;29;20421;-64
2022/07/16 09:41:18;;;;;;;2.75;2.65;;;;;;;-141.48;100.00;69781.59;4970461;29;20092;-63
2022/07/16 09:43:49;;;;;;;2.10;2.00;;;;;;;-141.48;100.00;69781.59;4970260;29;20034;-64
2022/07/16 09:46:22;;;;;;;2.58;2.47;;;;;;;-141.48;100.00;69781.59;4970611;29;20083;-63
2022/07/16 09:48:53;;;;;;;2.70;1.65;;;;;;;-141.48;100.00;69781.59;4970631;29;20033;-64
2022/07/16 09:51:26;;;;;;;2.30;2.20;;;;;;;-141.48;100.00;69781.59;4970443;29;20477;-64
2022/07/16 09:53:56;;;;;;;2.58;2.47;;;;;;;-141.48;100.00;69781.59;4954216;29;20037;-72
2022/07/16 09:56:28;;;;;;;2.00;1.90;;;;;;;-141.48;100.00;69781.59;4954146;29;20026;-66
2022/07/16 09:58:58;;;;;;;3.13;2.92;;;;;;;-141.48;100.00;69781.59;4970653;29;20455;-63
2022/07/16 10:01:29;;;;;;;5.55;2.30;;;;;;;-141.48;100.00;69781.59;4970301;29;20042;-71
2022/07/16 10:03:59;;;;;;;2.00;1.90;;;;;;;-141.48;100.00;69781.59;4969846;29;20384;-65
2022/07/16 10:06:29;;;;;;;5.53;3.08;;;;;;;-141.48;100.00;69781.59;4970233;29;20049;-64
2022/07/16 10:09:01;;;;;;;2.13;2.03;;;;;;;-141.48;100.00;69781.59;4970148;29;20504;-64
2022/07/16 10:11:31;;;;;;;2.20;2.10;;;;;;;-141.48;100.00;69781.59;4970080;29;20114;-63
2022/07/16 10:14:02;;;;;;;4.47;2.70;;;;;;;-141.48;100.00;69781.59;4969842;29;20106;-64
2022/07/16 10:16:40;;;;;;;2.78;2.33;;;;;;;-141.48;100.00;69781.59;4969944;29;20077;-65
2022/07/16 10:19:12;;;;;;;2.20;2.10;;;;;;;-141.48;100.00;69781.59;4970062;29;20042;-64
2022/07/16 10:22:15;;;;;;;3.05;2.78;;;;;;;-141.48;100.00;69781.59;4970142;29;20027;-65
2022/07/16 10:24:54;;;;;;;2.45;2.35;;;;;;;-141.48;100.00;69781.59;4953291;29;20031;-64
2022/07/16 10:27:35;;;;;;;1.75;1.65;;;;;;;-141.48;100.00;69781.59;4953793;29;20042;-64
2022/07/16 10:30:26;;;;;;;3.20;2.38;;;;;;;-141.48;100.00;69781.59;4969920;29;20026;-63
2022/07/16 10:32:59;;;;;;;3.55;3.25;;;;;;;-141.48;100.00;69781.59;4969859;29;20027;-63
2022/07/16 10:35:51;;;;;;;3.92;2.30;;;;;;;-141.48;100.00;69781.59;4969413;29;20038;-64
2022/07/16 10:38:27;;;;;;;3.03;2.35;;;;;;;-141.48;100.00;69781.59;4969752;29;20103;-64
2022/07/16 10:41:20;;;;;;;2.03;2.03;;;;;;;-141.48;100.00;69781.59;4969334;29;20037;-66
2022/07/16 10:44:10;;;;;;;2.03;1.95;;;;;;;-141.48;100.00;69781.59;4964333;24;20043;-61
2022/07/16 10:46:54;;;;;;;2.10;2.00;;;;;;;-141.48;100.00;69781.59;4968075;29;20043;-61
2022/07/16 10:49:26;;;;;;;4.10;2.60;;;;;;;-141.48;100.00;69781.59;4968393;29;20199;-61
2022/07/16 10:51:59;;;;;;;2.92;2.58;;;;;;;-141.48;100.00;69781.59;4968139;29;20062;-61
2022/07/16 10:54:31;;;;;;;3.28;3.08;;;;;;;-141.48;100.00;69781.59;4967576;29;20399;-61
2022/07/16 10:57:09;;;;;;;1.70;1.70;;;;;;;-141.48;100.00;69781.59;4968229;29;20835;-62
2022/07/16 10:59:45;;;;;;;2.05;1.95;;;;;;;-141.48;100.00;69781.59;4951962;29;20097;-62
2022/07/16 11:02:18;;;;;;;1.98;1.98;;;;;;;-141.48;100.00;69781.59;4951943;29;20122;-62
2022/07/16 11:04:49;;;;;;;1.80;1.70;;;;;;;-141.48;100.00;69781.59;4967541;29;20071;-62
2022/07/16 11:07:21;;;;;;;2.33;2.22;;;;;;;-141.48;100.00;69781.59;4968212;29;20034;-63
2022/07/16 11:09:54;;;;;;;1.42;1.40;;;;;;;-141.48;100.00;69781.59;4967900;29;20078;-63
2022/07/16 11:12:27;;;;;;;1.73;1.70;;;;;;;-141.48;100.00;69781.59;4968120;29;20173;-61
2022/07/16 11:15:00;;;;;;;2.38;2.28;;;;;;;-141.48;100.00;69781.59;4967646;29;20130;-61
2022/07/16 11:17:30;;;;;;;1.80;1.80;;;;;;;-141.48;100.00;69781.59;4968228;29;20088;-63
2022/07/16 11:20:05;;;;;;;2.95;2.75;;;;;;;-141.48;100.00;69781.59;4967639;29;20070;-63
2022/07/16 11:22:35;;;;;;;1.92;1.83;;;;;;;-141.48;100.00;69781.59;4967852;29;20031;-64
2022/07/16 11:25:06;;;;;;;2.08;1.98;;;;;;;-141.48;100.00;69781.59;4967814;29;20175;-63
2022/07/16 11:27:39;;;;;;;1.95;1.88;;;;;;;-141.48;100.00;69781.59;4968057;29;20383;-64
2022/07/16 11:30:11;;;;;;;2.15;2.05;;;;;;;-141.48;100.00;69781.59;4967509;29;20037;-63
2022/07/16 11:32:46;;;;;;;3.95;2.00;;;;;;;-141.48;100.00;69781.59;4968012;29;20054;-61
2022/07/16 11:35:16;;;;;;;4.47;2.65;;;;;;;-141.48;100.00;69781.59;4967199;29;20031;-64